createdAt,value
2022-08-26T00:00:08.784Z,4.70
2022-08-26T00:02:40.551Z,4.47
2022-08-26T00:05:09.494Z,5.60
2022-08-26T00:07:37.351Z,4.38
2022-08-26T00:10:06.411Z,5.50
2022-08-26T00:12:35.898Z,4.70
2022-08-26T00:15:09.833Z,5.25
2022-08-26T00:17:37.777Z,5.22
2022-08-26T00:20:10.957Z,4.85
2022-08-26T00:22:38.822Z,4.75
2022-08-26T00:25:08.509Z,5.97
2022-08-26T00:27:36.923Z,4.55
2022-08-26T00:30:11.976Z,4.60
2022-08-26T00:32:40.212Z,5.45
2022-08-26T00:35:13.250Z,4.47
2022-08-26T00:37:42.516Z,5.07
2022-08-26T00:40:16.960Z,5.22
2022-08-26T00:42:45.948Z,6.05
2022-08-26T00:45:15.329Z,4.78
2022-08-26T00:48:00.025Z,5.50
2022-08-26T00:50:39.630Z,5.10
2022-08-26T00:53:25.880Z,5.18
2022-08-26T00:56:08.342Z,5.47
2022-08-26T00:58:38.195Z,5.53
2022-08-26T01:01:10.362Z,4.75
2022-08-26T01:03:39.244Z,5.07
2022-08-26T01:06:11.461Z,6.10
2022-08-26T01:08:41.661Z,5.13
2022-08-26T01:11:10.187Z,5.38
2022-08-26T01:13:38.918Z,5.25
2022-08-26T01:16:12.844Z,5.25
2022-08-26T01:21:40.561Z,5.93
2022-08-26T01:24:11.041Z,4.80
2022-08-26T01:26:43.383Z,4.78
2022-08-26T01:29:17.870Z,5.10
2022-08-26T01:31:57.568Z,5.53
2022-08-26T01:34:30.959Z,6.45
2022-08-26T01:37:22.081Z,5.35
2022-08-26T01:39:53.931Z,5.82
2022-08-26T01:42:25.343Z,5.97
2022-08-26T01:45:05.810Z,6.60
2022-08-26T01:47:36.564Z,6.00
2022-08-26T01:50:13.383Z,5.63
2022-08-26T01:52:51.674Z,5.85
2022-08-26T01:55:32.255Z,7.60
2022-08-26T01:58:08.359Z,5.45
2022-08-26T02:00:37.717Z,6.03
2022-08-26T02:03:21.467Z,5.78
2022-08-26T02:05:58.726Z,5.40
2022-08-26T02:08:36.562Z,5.57
2022-08-26T02:11:05.102Z,6.43
2022-08-26T02:13:42.183Z,5.32
2022-08-26T02:16:11.882Z,5.25
2022-08-26T02:18:42.135Z,5.22
2022-08-26T02:21:12.690Z,5.70
2022-08-26T02:23:41.206Z,5.32
2022-08-26T02:26:19.844Z,6.38
2022-08-26T02:29:13.407Z,5.18
2022-08-26T02:31:42.766Z,5.35
2022-08-26T02:34:19.284Z,6.40
2022-08-26T02:36:49.470Z,5.25
2022-08-26T02:39:22.397Z,6.47
2022-08-26T02:41:50.584Z,5.38
2022-08-26T02:44:19.251Z,5.88
2022-08-26T02:46:47.435Z,6.18
2022-08-26T02:49:17.149Z,6.10
2022-08-26T02:51:45.790Z,5.38
2022-08-26T02:54:13.982Z,5.75
2022-08-26T02:56:42.562Z,6.45
2022-08-26T02:59:15.494Z,5.95
2022-08-26T03:01:45.272Z,6.55
2022-08-26T03:04:13.257Z,6.35
2022-08-26T03:06:43.100Z,5.72
2022-08-26T03:09:18.943Z,7.25
2022-08-26T03:11:47.378Z,6.43
2022-08-26T03:14:15.243Z,5.13
2022-08-26T03:16:43.972Z,5.90
2022-08-26T03:19:17.720Z,8.43
2022-08-26T03:21:47.381Z,7.55
2022-08-26T03:24:16.954Z,5.53
2022-08-26T03:26:52.722Z,5.75
2022-08-26T03:29:41.113Z,6.20
2022-08-26T03:32:09.630Z,8.02
2022-08-26T03:34:38.634Z,5.53
2022-08-26T03:37:06.801Z,5.20
2022-08-26T03:39:35.018Z,6.45
2022-08-26T03:42:02.915Z,5.53
2022-08-26T03:44:31.543Z,5.30
2022-08-26T03:47:00.471Z,8.90
2022-08-26T03:49:28.858Z,5.72
2022-08-26T03:51:56.916Z,5.43
2022-08-26T03:54:24.685Z,5.80
2022-08-26T03:56:52.583Z,9.27
2022-08-26T03:59:21.110Z,9.57
2022-08-26T04:01:49.059Z,6.90
2022-08-26T04:04:17.089Z,6.30
2022-08-26T04:06:45.234Z,5.18
2022-08-26T04:09:19.259Z,5.60
2022-08-26T04:11:50.763Z,5.68
2022-08-26T04:14:23.804Z,7.57
2022-08-26T04:16:52.743Z,6.63
2022-08-26T04:19:25.508Z,7.18
2022-08-26T04:21:54.540Z,5.68
2022-08-26T04:24:25.500Z,6.22
2022-08-26T04:26:53.947Z,5.50
2022-08-26T04:29:25.783Z,5.68
2022-08-26T04:31:58.103Z,5.60
2022-08-26T04:34:29.065Z,6.18
2022-08-26T04:36:58.297Z,5.40
2022-08-26T04:39:27.791Z,5.80
2022-08-26T04:41:57.916Z,5.57
2022-08-26T04:44:30.141Z,5.97
2022-08-26T04:46:58.697Z,5.50
2022-08-26T04:49:27.582Z,6.00
2022-08-26T04:51:55.480Z,5.30
2022-08-26T04:54:23.800Z,6.20
2022-08-26T04:56:53.148Z,5.78
2022-08-26T04:59:21.586Z,5.88
2022-08-26T05:01:53.355Z,6.40
2022-08-26T05:04:21.421Z,5.63
2022-08-26T05:06:50.418Z,8.15
2022-08-26T05:09:19.232Z,6.10
2022-08-26T05:11:48.417Z,5.85
2022-08-26T05:14:23.291Z,16.45
2022-08-26T05:16:52.194Z,6.07
2022-08-26T05:19:21.187Z,6.75
2022-08-26T05:21:49.604Z,6.65
2022-08-26T05:24:18.071Z,7.85
2022-08-26T05:26:47.308Z,7.30
2022-08-26T05:29:16.968Z,7.28
2022-08-26T05:31:44.937Z,6.53
2022-08-26T05:34:13.393Z,6.97
2022-08-26T05:36:42.037Z,8.98
2022-08-26T05:39:10.625Z,9.13
2022-08-26T05:41:41.863Z,11.00
2022-08-26T05:44:12.931Z,6.90
2022-08-26T05:46:44.147Z,6.72
2022-08-26T05:49:14.551Z,6.90
2022-08-26T05:51:46.404Z,6.40
2022-08-26T05:54:22.111Z,6.72
2022-08-26T05:56:53.326Z,6.47
2022-08-26T05:59:24.695Z,6.43
2022-08-26T06:01:55.151Z,7.20
2022-08-26T06:04:27.103Z,6.30
2022-08-26T06:07:01.180Z,6.97
2022-08-26T06:09:29.248Z,8.02
2022-08-26T06:11:58.904Z,7.70
2022-08-26T06:14:26.694Z,10.07
2022-08-26T06:16:55.184Z,9.43
2022-08-26T06:19:23.457Z,8.30
2022-08-26T06:21:54.057Z,7.93
2022-08-26T06:24:42.093Z,13.73
2022-08-26T06:27:15.311Z,6.18
2022-08-26T06:29:44.127Z,7.40
2022-08-26T06:32:12.934Z,6.13
2022-08-26T06:34:41.064Z,7.03
2022-08-26T06:37:09.821Z,6.20
2022-08-26T06:39:41.252Z,6.68
2022-08-26T06:42:10.870Z,6.63
2022-08-26T06:44:38.988Z,7.03
2022-08-26T06:47:09.047Z,6.45
2022-08-26T06:49:37.266Z,8.20
2022-08-26T06:52:05.080Z,5.55
2022-08-26T06:54:32.884Z,5.72
2022-08-26T06:57:01.187Z,6.93
2022-08-26T06:59:31.222Z,6.07
2022-08-26T07:01:59.188Z,5.78
2022-08-26T07:04:28.092Z,5.50
2022-08-26T07:06:56.618Z,7.80
2022-08-26T07:09:29.261Z,6.50
2022-08-26T07:11:57.748Z,6.20
2022-08-26T07:14:26.645Z,6.20
2022-08-26T07:17:02.875Z,6.38
2022-08-26T07:19:31.725Z,6.68
2022-08-26T07:22:05.889Z,6.15
2022-08-26T07:24:42.501Z,6.70
2022-08-26T07:27:14.937Z,5.88
2022-08-26T07:29:43.725Z,7.50
2022-08-26T07:32:14.349Z,6.97
2022-08-26T07:34:42.706Z,8.63
2022-08-26T07:37:11.107Z,7.78
2022-08-26T07:39:41.658Z,7.93
2022-08-26T07:42:14.224Z,5.72
2022-08-26T07:44:43.228Z,9.13
2022-08-26T07:47:25.663Z,8.38
2022-08-26T07:49:57.396Z,7.68
2022-08-26T07:52:28.314Z,8.52
2022-08-26T07:54:58.734Z,7.28
2022-08-26T07:57:28.492Z,12.57
2022-08-26T07:59:56.853Z,12.15
2022-08-26T08:02:26.728Z,6.60
2022-08-26T08:04:55.533Z,7.85
2022-08-26T08:07:38.486Z,10.55
2022-08-26T08:10:17.538Z,8.43
2022-08-26T08:12:47.055Z,6.75
2022-08-26T08:15:17.567Z,8.13
2022-08-26T08:17:45.468Z,7.10
2022-08-26T08:20:14.516Z,10.38
2022-08-26T08:22:43.215Z,9.68
2022-08-26T08:25:12.520Z,7.85
2022-08-26T08:27:42.989Z,9.55
2022-08-26T08:30:14.341Z,10.25
2022-08-26T08:32:45.672Z,10.07
2022-08-26T08:35:18.153Z,9.75
2022-08-26T08:37:46.215Z,10.10
2022-08-26T08:40:18.279Z,9.57
2022-08-26T08:43:03.781Z,11.83
2022-08-26T08:45:59.876Z,14.30
2022-08-26T08:48:33.395Z,15.50
2022-08-26T08:51:22.358Z,13.10
2022-08-26T08:53:54.563Z,7.95
2022-08-26T08:56:53.208Z,15.05
2022-08-26T08:59:34.139Z,11.52
2022-08-26T09:02:25.533Z,12.70
2022-08-26T09:05:17.435Z,10.23
2022-08-26T09:08:02.120Z,14.85
2022-08-26T09:10:52.867Z,11.93
2022-08-26T09:13:25.117Z,14.27
2022-08-26T09:16:24.867Z,12.90
2022-08-26T09:19:21.221Z,16.25
2022-08-26T09:21:57.812Z,9.77
2022-08-26T09:24:28.442Z,12.50
2022-08-26T09:27:46.069Z,11.98
2022-08-26T09:30:29.461Z,15.07
2022-08-26T09:33:14.512Z,11.38
2022-08-26T09:35:48.597Z,14.68
2022-08-26T09:38:33.580Z,11.50
2022-08-26T09:41:08.331Z,14.07
2022-08-26T09:43:37.015Z,17.23
2022-08-26T09:46:20.661Z,14.20
2022-08-26T09:51:23.498Z,15.40
2022-08-26T09:53:57.380Z,9.70
2022-08-26T09:56:33.416Z,11.50
2022-08-26T09:59:02.700Z,12.18
2022-08-26T10:01:42.937Z,9.77
2022-08-26T10:04:25.100Z,10.60
2022-08-26T10:07:05.292Z,9.82
2022-08-26T10:09:43.391Z,12.15
2022-08-26T10:12:21.252Z,14.05
2022-08-26T10:14:56.280Z,12.35
2022-08-26T10:17:32.350Z,11.43
2022-08-26T10:20:23.609Z,16.85
2022-08-26T10:23:12.272Z,13.38
2022-08-26T10:26:16.435Z,11.75
2022-08-26T10:29:07.584Z,12.05
2022-08-26T10:31:48.342Z,13.00
2022-08-26T10:34:21.188Z,13.10
2022-08-26T10:37:15.610Z,17.23
2022-08-26T10:39:56.969Z,19.48
2022-08-26T10:43:11.372Z,12.90
2022-08-26T10:45:47.802Z,12.03
2022-08-26T10:48:52.643Z,14.70
2022-08-26T10:51:42.125Z,13.18
2022-08-26T10:55:03.164Z,9.25
2022-08-26T10:57:49.358Z,10.02
2022-08-26T11:00:58.605Z,15.18
2022-08-26T11:03:37.107Z,13.23
2022-08-26T11:06:24.129Z,10.30
2022-08-26T11:08:59.876Z,9.43
2022-08-26T11:11:47.006Z,11.80
2022-08-26T11:14:28.446Z,8.77
2022-08-26T11:16:57.619Z,10.82
2022-08-26T11:19:59.722Z,12.55
2022-08-26T11:22:47.642Z,9.73
2022-08-26T11:25:22.264Z,9.32
2022-08-26T11:27:57.729Z,10.63
2022-08-26T11:30:25.796Z,7.13
2022-08-26T11:32:58.923Z,7.00
2022-08-26T11:35:27.338Z,6.70
2022-08-26T11:38:20.231Z,7.13
2022-08-26T11:41:21.005Z,7.65
2022-08-26T11:43:52.275Z,8.18
2022-08-26T11:46:28.324Z,15.20
2022-08-26T11:49:05.869Z,9.60
2022-08-26T11:51:40.368Z,10.35
2022-08-26T11:54:35.359Z,8.77
2022-08-26T11:57:09.502Z,11.18
2022-08-26T11:59:42.353Z,9.40
2022-08-26T12:02:18.196Z,12.98
2022-08-26T12:04:50.648Z,8.93
2022-08-26T12:12:36.118Z,8.90
2022-08-26T12:15:13.781Z,11.07
2022-08-26T12:17:43.360Z,7.82
2022-08-26T12:20:32.019Z,7.53
2022-08-26T12:23:00.875Z,10.98
2022-08-26T12:25:35.935Z,9.57
2022-08-26T12:28:06.244Z,10.43
2022-08-26T12:30:34.359Z,10.52
2022-08-26T12:33:21.953Z,7.90
2022-08-26T12:35:56.368Z,12.13
2022-08-26T12:38:26.916Z,12.38
2022-08-26T12:40:57.212Z,9.30
2022-08-26T12:43:45.876Z,13.30
2022-08-26T12:46:23.127Z,14.32
2022-08-26T12:48:51.246Z,13.60
2022-08-26T12:51:29.120Z,14.40
2022-08-26T12:53:57.728Z,11.77
2022-08-26T12:56:39.614Z,11.27
2022-08-26T12:59:26.652Z,7.57
2022-08-26T13:01:54.799Z,9.52
2022-08-26T13:04:37.889Z,11.52
2022-08-26T13:09:51.884Z,10.07
2022-08-26T13:12:32.540Z,11.30
2022-08-26T13:15:02.630Z,9.15
2022-08-26T13:17:31.289Z,9.25
2022-08-26T13:20:03.467Z,10.30
2022-08-26T13:24:59.583Z,10.40
2022-08-26T13:27:28.062Z,9.30
2022-08-26T13:29:57.416Z,9.30
2022-08-26T13:32:27.767Z,10.43
2022-08-26T13:34:57.459Z,11.10
2022-08-26T13:37:35.285Z,9.38
2022-08-26T13:40:06.924Z,14.10
2022-08-26T13:42:34.951Z,14.23
2022-08-26T13:45:03.654Z,8.70
2022-08-26T13:47:31.547Z,9.35
2022-08-26T13:49:59.388Z,8.05
2022-08-26T13:52:30.785Z,10.90
2022-08-26T13:55:02.767Z,10.50
2022-08-26T13:57:31.441Z,12.13
2022-08-26T13:59:59.800Z,9.05
2022-08-26T14:02:28.235Z,9.20
2022-08-26T14:04:56.447Z,13.02
2022-08-26T14:07:26.309Z,13.50
2022-08-26T14:09:54.491Z,11.88
2022-08-26T14:12:22.602Z,11.02
2022-08-26T14:14:50.694Z,12.90
2022-08-26T14:17:22.499Z,10.45
2022-08-26T14:19:51.575Z,9.77
2022-08-26T14:22:22.192Z,10.00
2022-08-26T14:24:50.567Z,13.70
2022-08-26T14:27:18.362Z,13.45
2022-08-26T14:29:46.109Z,12.55
2022-08-26T14:32:24.980Z,10.38
2022-08-26T14:34:54.660Z,11.27
2022-08-26T14:37:23.404Z,9.00
2022-08-26T14:39:51.873Z,10.68
2022-08-26T14:42:27.921Z,7.18
2022-08-26T14:45:05.338Z,11.70
2022-08-26T14:47:33.157Z,7.90
2022-08-26T14:50:01.097Z,9.73
2022-08-26T14:52:29.737Z,11.52
2022-08-26T14:54:57.528Z,11.88
2022-08-26T14:57:25.339Z,8.48
2022-08-26T14:59:53.315Z,10.35
2022-08-26T15:02:33.146Z,11.43
2022-08-26T15:05:02.973Z,11.40
2022-08-26T15:07:31.851Z,8.55
2022-08-26T15:09:59.804Z,14.00
2022-08-26T15:12:28.352Z,7.05
2022-08-26T15:14:56.182Z,7.57
2022-08-26T15:17:24.148Z,8.85
2022-08-26T15:19:52.495Z,7.10
2022-08-26T15:22:20.319Z,8.07
2022-08-26T15:24:48.179Z,15.27
2022-08-26T15:27:21.627Z,13.80
2022-08-26T15:29:49.524Z,7.38
2022-08-26T15:32:17.527Z,9.57
2022-08-26T15:34:45.650Z,9.43
2022-08-26T15:37:13.439Z,5.03
2022-08-26T15:39:41.223Z,4.97
2022-08-26T15:42:09.020Z,5.03
2022-08-26T15:44:37.148Z,5.70
2022-08-26T15:47:05.134Z,6.43
2022-08-26T15:49:33.099Z,6.78
2022-08-26T15:52:04.219Z,9.05
2022-08-26T15:54:33.538Z,11.52
2022-08-26T15:57:03.643Z,9.30
2022-08-26T15:59:31.902Z,14.30
2022-08-26T16:02:01.658Z,13.85
2022-08-26T16:04:29.489Z,12.27
2022-08-26T16:06:57.329Z,14.95
2022-08-26T16:09:27.164Z,12.07
2022-08-26T16:11:56.267Z,9.85
2022-08-26T16:14:25.114Z,11.40
2022-08-26T16:16:53.533Z,13.25
2022-08-26T16:19:22.302Z,12.38
2022-08-26T16:21:51.549Z,17.63
2022-08-26T16:24:28.377Z,14.32
2022-08-26T16:26:58.083Z,7.60
2022-08-26T16:29:26.430Z,8.77
2022-08-26T16:31:54.831Z,6.25
2022-08-26T16:34:22.895Z,11.38
2022-08-26T16:36:50.801Z,9.27
2022-08-26T16:39:18.592Z,9.07
2022-08-26T16:41:46.456Z,7.65
2022-08-26T16:44:14.285Z,8.45
2022-08-26T16:46:42.317Z,7.72
2022-08-26T16:49:10.229Z,8.38
2022-08-26T16:51:38.555Z,8.15
2022-08-26T16:54:08.896Z,8.30
2022-08-26T16:56:37.839Z,8.68
2022-08-26T16:59:10.540Z,9.75
2022-08-26T17:01:38.513Z,7.65
2022-08-26T17:04:06.698Z,10.43
2022-08-26T17:06:35.205Z,10.15
2022-08-26T17:09:03.635Z,7.65
2022-08-26T17:11:31.583Z,9.10
2022-08-26T17:13:59.467Z,7.07
2022-08-26T17:16:27.681Z,7.25
2022-08-26T17:18:58.139Z,9.32
2022-08-26T17:21:28.394Z,5.78
2022-08-26T17:23:56.847Z,8.05
2022-08-26T17:26:25.080Z,8.88
2022-08-26T17:28:53.391Z,8.80
2022-08-26T17:31:22.434Z,9.65
2022-08-26T17:33:53.667Z,9.50
2022-08-26T17:36:27.653Z,9.10
2022-08-26T17:38:58.496Z,7.28
2022-08-26T17:41:27.170Z,9.18
2022-08-26T17:43:55.841Z,7.05
2022-08-26T17:46:24.506Z,8.00
2022-08-26T17:48:53.101Z,8.93
2022-08-26T17:51:22.847Z,7.30
2022-08-26T17:53:52.611Z,10.13
2022-08-26T17:56:29.813Z,10.00
2022-08-26T17:59:04.136Z,10.90
2022-08-26T18:01:33.191Z,11.18
2022-08-26T18:04:01.721Z,10.07
2022-08-26T18:06:30.796Z,8.57
2022-08-26T18:09:00.679Z,8.75
2022-08-26T18:11:29.859Z,11.75
2022-08-26T18:13:58.400Z,11.13
2022-08-26T18:16:27.561Z,10.18
2022-08-26T18:18:56.011Z,8.50
2022-08-26T18:21:26.718Z,9.02
2022-08-26T18:23:55.640Z,8.93
2022-08-26T18:26:30.494Z,10.35
2022-08-26T18:28:59.385Z,9.35
2022-08-26T18:31:28.356Z,8.73
2022-08-26T18:33:57.001Z,7.22
2022-08-26T18:36:33.332Z,8.40
2022-08-26T18:39:03.707Z,9.15
2022-08-26T18:41:34.447Z,8.00
2022-08-26T18:44:02.762Z,8.65
2022-08-26T18:46:31.239Z,7.35
2022-08-26T18:49:00.226Z,10.90
2022-08-26T18:51:31.786Z,7.75
2022-08-26T18:54:02.654Z,7.97
2022-08-26T18:56:31.460Z,8.68
2022-08-26T18:59:00.263Z,9.32
2022-08-26T19:01:31.067Z,9.50
2022-08-26T19:04:01.800Z,11.02
2022-08-26T19:06:33.163Z,10.95
2022-08-26T19:09:06.428Z,10.70
2022-08-26T19:11:42.263Z,10.73
2022-08-26T19:14:15.489Z,9.32
2022-08-26T19:16:47.721Z,9.07
2022-08-26T19:19:16.241Z,10.57
2022-08-26T19:21:45.886Z,8.85
2022-08-26T19:24:17.655Z,9.23
2022-08-26T19:26:57.034Z,10.30
2022-08-26T19:29:33.631Z,8.80
2022-08-26T19:32:03.989Z,10.07
2022-08-26T19:34:32.455Z,10.05
2022-08-26T19:37:00.635Z,9.25
2022-08-26T19:39:29.075Z,9.25
2022-08-26T19:41:57.428Z,8.63
2022-08-26T19:44:43.853Z,10.00
2022-08-26T19:47:15.671Z,10.52
2022-08-26T19:49:43.866Z,9.52
2022-08-26T19:52:12.528Z,9.02
2022-08-26T19:54:41.353Z,10.40
2022-08-26T19:57:09.533Z,9.07
2022-08-26T19:59:37.638Z,10.30
2022-08-26T20:02:10.552Z,10.90
2022-08-26T20:04:39.928Z,9.88
2022-08-26T20:07:09.302Z,9.43
2022-08-26T20:09:38.468Z,11.77
2022-08-26T20:12:08.137Z,12.23
2022-08-26T20:14:37.774Z,11.38
2022-08-26T20:17:06.618Z,10.48
2022-08-26T20:19:54.091Z,13.02
2022-08-26T20:22:22.896Z,12.15
2022-08-26T20:24:51.920Z,14.57
2022-08-26T20:27:22.304Z,13.10
2022-08-26T20:29:50.383Z,14.50
2022-08-26T20:32:19.722Z,16.15
2022-08-26T20:34:49.305Z,13.50
2022-08-26T20:37:21.456Z,11.25
2022-08-26T20:39:49.795Z,13.70
2022-08-26T20:42:20.353Z,12.68
2022-08-26T20:44:54.704Z,18.23
2022-08-26T20:47:23.505Z,14.77
2022-08-26T20:49:52.308Z,12.40
2022-08-26T20:52:21.227Z,11.68
2022-08-26T20:54:49.431Z,15.60
2022-08-26T20:57:17.655Z,12.95
2022-08-26T20:59:45.864Z,18.13
2022-08-26T21:02:13.935Z,14.98
2022-08-26T21:04:42.054Z,15.68
2022-08-26T21:07:10.324Z,15.60
2022-08-26T21:09:38.421Z,14.40
2022-08-26T21:12:06.627Z,14.07
2022-08-26T21:14:34.830Z,14.98
2022-08-26T21:17:04.089Z,13.82
2022-08-26T21:19:32.295Z,14.23
2022-08-26T21:22:00.497Z,13.07
2022-08-26T21:24:28.602Z,15.50
2022-08-26T21:26:56.783Z,15.48
2022-08-26T21:29:25.224Z,15.30
2022-08-26T21:31:53.484Z,14.90
2022-08-26T21:34:21.629Z,13.95
2022-08-26T21:36:50.189Z,13.27
2022-08-26T21:39:18.893Z,17.40
2022-08-26T21:41:47.567Z,19.05
2022-08-26T21:44:17.814Z,13.77
2022-08-26T21:46:47.320Z,15.30
2022-08-26T21:49:16.618Z,14.70
2022-08-26T21:51:48.165Z,15.05
2022-08-26T21:54:18.203Z,15.95
2022-08-26T21:56:48.290Z,13.80
2022-08-26T21:59:19.034Z,14.05
2022-08-26T22:01:47.936Z,14.10
2022-08-26T22:04:17.096Z,15.73
2022-08-26T22:06:52.260Z,17.80
2022-08-26T22:09:25.274Z,17.83
2022-08-26T22:11:56.974Z,15.90
2022-08-26T22:14:30.424Z,15.73
2022-08-26T22:16:59.946Z,18.00
2022-08-26T22:19:28.393Z,26.33
2022-08-26T22:21:57.074Z,21.02
2022-08-26T22:24:27.561Z,52.15
2022-08-26T22:26:56.481Z,17.20
2022-08-26T22:29:25.792Z,22.27
2022-08-26T22:31:54.270Z,16.52
2022-08-26T22:34:23.283Z,16.05
2022-08-26T22:36:51.928Z,17.45
2022-08-26T22:39:23.631Z,16.73
2022-08-26T22:41:53.997Z,16.67
2022-08-26T22:44:23.270Z,20.70
2022-08-26T22:46:54.461Z,21.67
2022-08-26T22:49:23.402Z,17.92
2022-08-26T22:51:51.824Z,21.67
2022-08-26T22:54:20.388Z,26.73
2022-08-26T22:56:48.839Z,25.73
2022-08-26T22:59:17.030Z,28.05
2022-08-26T23:01:46.580Z,21.40
2022-08-26T23:04:15.260Z,23.73
2022-08-26T23:06:47.703Z,23.77
2022-08-26T23:09:18.733Z,25.60
2022-08-26T23:11:49.821Z,27.30
2022-08-26T23:14:19.359Z,27.83
2022-08-26T23:16:47.902Z,33.35
2022-08-26T23:19:20.183Z,28.23
2022-08-26T23:21:49.094Z,35.80
2022-08-26T23:24:18.041Z,32.67
2022-08-26T23:26:46.579Z,33.42
2022-08-26T23:29:16.001Z,32.75
2022-08-26T23:31:44.256Z,27.58
2022-08-26T23:34:31.347Z,32.65
2022-08-26T23:37:00.968Z,34.88
2022-08-26T23:39:32.210Z,30.73
2022-08-26T23:42:01.790Z,32.13
2022-08-26T23:44:32.347Z,30.33
2022-08-26T23:47:01.239Z,29.42
2022-08-26T23:49:29.928Z,28.40
2022-08-26T23:52:18.432Z,34.42
2022-08-26T23:54:48.802Z,31.48
2022-08-26T23:57:18.771Z,31.27
2022-08-26T23:59:47.103Z,30.52
